createdAt,value
2019-02-12T00:00:27.279Z,4.00
2019-02-12T00:02:56.694Z,3.75
2019-02-12T00:05:25.751Z,3.50
2019-02-12T00:07:54.823Z,3.80
2019-02-12T00:10:23.976Z,3.90
2019-02-12T00:12:53.033Z,3.60
2019-02-12T00:15:22.101Z,3.65
2019-02-12T00:17:51.580Z,3.85
2019-02-12T00:20:20.646Z,3.80
2019-02-12T00:22:49.711Z,3.75
2019-02-12T00:25:18.821Z,3.70
2019-02-12T00:27:48.162Z,5.05
2019-02-12T00:30:17.246Z,4.00
2019-02-12T00:32:46.345Z,3.95
2019-02-12T00:35:15.409Z,3.75
2019-02-12T00:37:44.466Z,3.35
2019-02-12T00:40:13.841Z,3.58
2019-02-12T00:42:43.240Z,3.98
2019-02-12T00:45:12.302Z,4.42
2019-02-12T00:47:42.225Z,4.28
2019-02-12T00:50:12.167Z,3.83
2019-02-12T00:52:41.228Z,3.85
2019-02-12T00:55:10.612Z,3.27
2019-02-12T00:57:39.673Z,4.15
2019-02-12T01:00:13.671Z,3.72
2019-02-12T01:02:42.790Z,3.70
2019-02-12T01:05:11.851Z,3.98
2019-02-12T01:07:40.908Z,3.02
2019-02-12T01:10:11.893Z,3.85
2019-02-12T01:12:41.289Z,4.25
2019-02-12T01:15:14.285Z,4.55
2019-02-12T01:17:43.374Z,3.70
2019-02-12T01:20:14.129Z,4.80
2019-02-12T01:22:43.244Z,3.60
2019-02-12T01:25:15.325Z,3.90
2019-02-12T01:27:44.389Z,3.65
2019-02-12T01:30:17.007Z,4.25
2019-02-12T01:32:46.664Z,3.75
2019-02-12T01:35:15.974Z,4.28
2019-02-12T01:37:45.269Z,4.22
2019-02-12T01:40:14.385Z,4.47
2019-02-12T01:42:43.459Z,4.15
2019-02-12T01:45:13.133Z,4.08
2019-02-12T01:47:42.251Z,4.67
2019-02-12T01:50:12.911Z,4.67
2019-02-12T01:52:41.974Z,4.35
2019-02-12T01:55:11.316Z,4.53
2019-02-12T01:57:40.675Z,4.47
2019-02-12T02:00:13.252Z,4.50
2019-02-12T02:02:42.824Z,4.50
2019-02-12T02:05:11.892Z,3.87
2019-02-12T02:07:40.950Z,4.45
2019-02-12T02:10:16.437Z,4.20
2019-02-12T02:12:45.885Z,4.50
2019-02-12T02:15:15.831Z,4.67
2019-02-12T02:17:45.198Z,4.45
2019-02-12T02:20:15.304Z,4.72
2019-02-12T02:22:44.638Z,4.50
2019-02-12T02:25:14.274Z,4.87
2019-02-12T02:27:43.334Z,5.03
2019-02-12T02:30:15.038Z,4.80
2019-02-12T02:32:44.265Z,4.67
2019-02-12T02:35:13.346Z,5.30
2019-02-12T02:37:42.685Z,5.12
2019-02-12T02:40:12.069Z,4.35
2019-02-12T02:42:41.133Z,4.97
2019-02-12T02:45:12.529Z,4.70
2019-02-12T02:47:41.642Z,4.70
2019-02-12T02:50:11.194Z,5.40
2019-02-12T02:52:40.523Z,5.53
2019-02-12T02:55:10.158Z,5.97
2019-02-12T02:57:39.219Z,5.78
2019-02-12T03:00:11.192Z,5.83
2019-02-12T03:02:40.299Z,6.20
2019-02-12T03:05:11.625Z,5.75
2019-02-12T03:07:43.787Z,6.35
2019-02-12T03:10:12.891Z,5.87
2019-02-12T03:12:41.963Z,6.10
2019-02-12T03:15:12.113Z,6.03
2019-02-12T03:17:41.216Z,6.15
2019-02-12T03:20:13.592Z,6.35
2019-02-12T03:22:42.650Z,6.45
2019-02-12T03:25:12.077Z,6.20
2019-02-12T03:27:41.138Z,6.55
2019-02-12T03:30:12.745Z,7.40
2019-02-12T03:32:42.117Z,6.53
2019-02-12T03:35:11.802Z,6.97
2019-02-12T03:37:40.863Z,6.55
2019-02-12T03:40:11.911Z,6.80
2019-02-12T03:42:41.281Z,6.42
2019-02-12T03:45:14.302Z,6.85
2019-02-12T03:47:43.675Z,7.65
2019-02-12T03:50:13.374Z,6.55
2019-02-12T03:52:42.436Z,6.22
2019-02-12T03:55:14.314Z,6.62
2019-02-12T03:57:43.366Z,7.05
2019-02-12T04:00:16.403Z,6.83
2019-02-12T04:03:03.906Z,7.10
2019-02-12T04:05:34.471Z,5.75
2019-02-12T04:08:03.738Z,6.92
2019-02-12T04:10:32.850Z,6.97
2019-02-12T04:13:02.156Z,6.20
2019-02-12T04:15:31.275Z,6.70
2019-02-12T04:18:00.375Z,7.08
2019-02-12T04:20:29.751Z,6.28
2019-02-12T04:22:58.804Z,7.90
2019-02-12T04:25:27.914Z,6.78
2019-02-12T04:27:57.258Z,7.03
2019-02-12T04:30:26.320Z,6.53
2019-02-12T04:32:55.743Z,7.22
2019-02-12T04:35:24.805Z,6.83
2019-02-12T04:37:53.867Z,7.00
2019-02-12T04:40:22.968Z,7.28
2019-02-12T04:42:52.320Z,6.55
2019-02-12T04:45:21.382Z,7.55
2019-02-12T04:47:50.808Z,6.92
2019-02-12T04:50:19.865Z,6.70
2019-02-12T04:52:48.923Z,7.10
2019-02-12T04:55:18.034Z,6.50
2019-02-12T04:57:47.091Z,6.90
2019-02-12T05:00:19.587Z,7.22
2019-02-12T05:02:48.994Z,7.15
2019-02-12T05:05:18.490Z,6.55
2019-02-12T05:07:47.549Z,6.83
2019-02-12T05:10:36.425Z,6.65
2019-02-12T05:13:05.472Z,6.90
2019-02-12T05:15:34.822Z,7.47
2019-02-12T05:18:03.930Z,7.05
2019-02-12T05:20:32.992Z,6.53
2019-02-12T05:23:02.046Z,7.35
2019-02-12T05:25:31.163Z,7.45
2019-02-12T05:28:00.507Z,6.17
2019-02-12T05:30:29.613Z,6.75
2019-02-12T05:32:59.024Z,6.87
2019-02-12T05:35:28.094Z,7.00
2019-02-12T05:37:57.144Z,6.75
2019-02-12T05:40:26.261Z,6.03
2019-02-12T05:42:55.388Z,6.03
2019-02-12T05:45:24.684Z,5.25
2019-02-12T05:47:54.113Z,6.15
2019-02-12T05:50:23.241Z,6.75
2019-02-12T05:52:54.734Z,6.58
2019-02-12T05:55:23.191Z,6.53
2019-02-12T05:57:52.245Z,6.28
2019-02-12T06:00:22.949Z,6.65
2019-02-12T06:02:52.359Z,6.45
2019-02-12T06:05:30.100Z,7.58
2019-02-12T06:07:59.158Z,6.62
2019-02-12T06:10:28.216Z,6.15
2019-02-12T06:12:57.300Z,6.50
2019-02-12T06:15:26.739Z,6.72
2019-02-12T06:17:55.802Z,6.22
2019-02-12T06:20:24.864Z,6.53
2019-02-12T06:23:03.096Z,7.67
2019-02-12T06:25:24.811Z,7.17
2019-02-12T06:27:53.865Z,7.33
2019-02-12T06:30:22.964Z,7.62
2019-02-12T06:32:52.392Z,8.08
2019-02-12T06:35:21.415Z,8.45
2019-02-12T06:37:50.531Z,8.70
2019-02-12T06:40:19.588Z,8.83
2019-02-12T06:42:48.942Z,10.70
2019-02-12T06:45:18.053Z,9.75
2019-02-12T06:47:47.129Z,11.12
2019-02-12T06:50:16.241Z,9.10
2019-02-12T06:52:45.626Z,9.75
2019-02-12T06:55:14.676Z,9.53
2019-02-12T06:57:43.793Z,9.00
2019-02-12T07:00:15.015Z,9.95
2019-02-12T07:03:16.247Z,9.68
2019-02-12T07:05:50.219Z,8.83
2019-02-12T07:08:46.373Z,9.88
2019-02-12T07:11:50.488Z,10.98
2019-02-12T07:14:49.810Z,10.38
2019-02-12T07:17:49.400Z,10.93
2019-02-12T07:20:37.935Z,12.60
2019-02-12T07:23:21.384Z,9.50
2019-02-12T07:25:58.791Z,11.15
2019-02-12T07:28:38.511Z,11.68
2019-02-12T07:31:18.852Z,11.80
2019-02-12T07:34:01.803Z,10.45
2019-02-12T07:37:02.633Z,10.55
2019-02-12T07:39:57.940Z,12.00
2019-02-12T07:42:54.486Z,11.73
2019-02-12T07:45:55.810Z,12.98
2019-02-12T07:48:57.575Z,12.28
2019-02-12T07:51:52.584Z,12.35
2019-02-12T07:54:38.311Z,13.20
2019-02-12T07:57:42.780Z,11.22
2019-02-12T08:00:19.198Z,12.05
2019-02-12T08:03:10.893Z,11.70
2019-02-12T08:05:56.575Z,12.73
2019-02-12T08:08:52.905Z,12.47
2019-02-12T08:11:29.468Z,12.25
2019-02-12T08:14:24.298Z,11.90
2019-02-12T08:17:16.219Z,12.05
2019-02-12T08:20:13.421Z,12.37
2019-02-12T08:23:08.770Z,12.78
2019-02-12T08:25:54.764Z,12.37
2019-02-12T08:29:15.578Z,13.08
2019-02-12T08:33:26.973Z,15.18
2019-02-12T08:36:02.351Z,14.13
2019-02-12T08:38:55.681Z,15.80
2019-02-12T08:41:51.832Z,16.12
2019-02-12T08:44:33.187Z,15.72
2019-02-12T08:47:41.505Z,13.20
2019-02-12T08:50:20.106Z,12.05
2019-02-12T08:52:57.941Z,16.27
2019-02-12T08:55:39.240Z,15.50
2019-02-12T08:58:39.938Z,13.55
2019-02-12T09:01:17.489Z,16.15
2019-02-12T09:04:13.313Z,15.55
2019-02-12T09:06:51.337Z,15.20
2019-02-12T09:09:35.090Z,15.95
2019-02-12T09:12:27.736Z,16.40
2019-02-12T09:15:16.816Z,15.13
2019-02-12T09:18:05.787Z,17.70
2019-02-12T09:21:01.785Z,15.68
2019-02-12T09:24:05.277Z,16.37
2019-02-12T09:27:30.043Z,16.30
2019-02-12T09:30:18.944Z,14.53
2019-02-12T09:33:09.255Z,16.00
2019-02-12T09:36:12.685Z,13.70
2019-02-12T09:38:49.684Z,13.93
2019-02-12T09:41:35.484Z,15.32
2019-02-12T09:44:24.000Z,12.45
2019-02-12T09:47:34.336Z,14.18
2019-02-12T09:50:29.326Z,13.70
2019-02-12T09:53:38.162Z,11.50
2019-02-12T09:56:40.030Z,12.93
2019-02-12T09:59:22.703Z,14.30
2019-02-12T10:02:08.711Z,14.83
2019-02-12T10:04:59.227Z,13.88
2019-02-12T10:08:01.605Z,12.20
2019-02-12T10:10:41.257Z,12.55
2019-02-12T10:13:20.837Z,12.43
2019-02-12T10:16:11.486Z,11.03
2019-02-12T10:19:03.211Z,12.20
2019-02-12T10:21:42.821Z,12.63
2019-02-12T10:24:40.884Z,12.37
2019-02-12T10:27:23.726Z,11.65
2019-02-12T10:30:20.304Z,11.12
2019-02-12T10:32:49.681Z,10.98
2019-02-12T10:35:19.066Z,8.85
2019-02-12T10:37:48.512Z,10.78
2019-02-12T10:40:17.632Z,9.50
2019-02-12T10:42:46.686Z,10.78
2019-02-12T10:45:15.939Z,11.00
2019-02-12T10:47:45.036Z,9.55
2019-02-12T10:50:14.118Z,10.65
2019-02-12T10:52:43.172Z,10.85
2019-02-12T10:55:12.284Z,10.98
2019-02-12T10:57:41.608Z,11.12
2019-02-12T11:00:15.401Z,11.10
2019-02-12T11:02:44.959Z,11.97
2019-02-12T11:05:14.030Z,11.12
2019-02-12T11:07:43.458Z,10.70
2019-02-12T11:10:12.854Z,11.10
2019-02-12T11:12:42.257Z,9.47
2019-02-12T11:15:11.677Z,7.00
2019-02-12T11:17:40.788Z,10.18
2019-02-12T11:20:10.777Z,8.43
2019-02-12T11:22:39.834Z,8.08
2019-02-12T11:25:10.092Z,9.03
2019-02-12T11:27:39.491Z,8.70
2019-02-12T11:30:12.410Z,9.83
2019-02-12T11:32:41.516Z,8.58
2019-02-12T11:35:12.594Z,8.83
2019-02-12T11:37:41.657Z,8.13
2019-02-12T11:40:13.451Z,9.50
2019-02-12T11:42:42.957Z,9.33
2019-02-12T11:45:15.173Z,9.55
2019-02-12T11:47:44.258Z,9.80
2019-02-12T11:50:13.345Z,9.28
2019-02-12T11:52:42.744Z,10.13
2019-02-12T11:55:15.562Z,9.75
2019-02-12T11:57:44.927Z,9.45
2019-02-12T12:00:17.936Z,8.88
2019-02-12T12:02:47.320Z,8.90
2019-02-12T12:05:16.707Z,10.03
2019-02-12T12:07:45.770Z,8.73
2019-02-12T12:10:14.882Z,10.38
2019-02-12T12:12:43.999Z,9.48
2019-02-12T12:15:15.711Z,8.88
2019-02-12T12:17:44.828Z,10.03
2019-02-12T12:20:15.900Z,10.30
2019-02-12T12:22:44.955Z,9.73
2019-02-12T12:25:14.129Z,9.85
2019-02-12T12:27:43.198Z,10.05
2019-02-12T12:30:14.678Z,8.75
2019-02-12T12:32:46.309Z,9.88
2019-02-12T12:35:15.826Z,8.83
2019-02-12T12:37:45.173Z,9.08
2019-02-12T12:40:14.727Z,9.93
2019-02-12T12:42:43.788Z,9.30
2019-02-12T12:45:14.762Z,10.03
2019-02-12T12:47:44.122Z,9.58
2019-02-12T12:50:13.953Z,9.08
2019-02-12T12:52:43.334Z,9.05
2019-02-12T12:55:12.449Z,9.35
2019-02-12T12:57:42.300Z,10.05
2019-02-12T13:00:15.548Z,10.32
2019-02-12T13:02:44.945Z,10.23
2019-02-12T13:05:14.013Z,9.75
2019-02-12T13:07:43.101Z,10.03
2019-02-12T13:10:16.244Z,9.20
2019-02-12T13:12:45.402Z,10.80
2019-02-12T13:15:15.874Z,10.80
2019-02-12T13:17:45.014Z,10.48
2019-02-12T13:20:19.729Z,9.48
2019-02-12T13:22:48.803Z,9.95
2019-02-12T13:25:17.926Z,9.55
2019-02-12T13:27:46.984Z,9.25
2019-02-12T13:30:19.036Z,10.80
2019-02-12T13:32:48.144Z,10.72
2019-02-12T13:35:17.507Z,10.82
2019-02-12T13:37:46.646Z,11.00
2019-02-12T13:40:15.708Z,9.65
2019-02-12T13:42:45.099Z,8.70
2019-02-12T13:45:16.502Z,10.75
2019-02-12T13:47:45.647Z,9.40
2019-02-12T13:50:14.702Z,9.00
2019-02-12T13:52:43.762Z,9.80
2019-02-12T13:55:17.238Z,9.63
2019-02-12T13:57:44.089Z,9.45
2019-02-12T14:00:18.401Z,9.50
2019-02-12T14:02:47.440Z,8.58
2019-02-12T14:05:25.916Z,9.75
2019-02-12T14:07:54.984Z,9.53
2019-02-12T14:10:24.617Z,9.95
2019-02-12T14:12:53.813Z,9.80
2019-02-12T14:15:23.137Z,8.18
2019-02-12T14:17:52.521Z,8.85
2019-02-12T14:20:21.646Z,9.65
2019-02-12T14:22:50.710Z,8.90
2019-02-12T14:25:25.347Z,9.10
2019-02-12T14:27:50.601Z,9.68
2019-02-12T14:30:22.068Z,9.63
2019-02-12T14:32:51.377Z,9.10
2019-02-12T14:35:20.795Z,9.08
2019-02-12T14:37:49.860Z,9.25
2019-02-12T14:40:18.916Z,8.45
2019-02-12T14:42:48.291Z,9.23
2019-02-12T14:45:19.256Z,9.60
2019-02-12T14:47:48.313Z,9.60
2019-02-12T14:50:21.898Z,10.32
2019-02-12T14:52:50.972Z,8.70
2019-02-12T14:55:20.022Z,9.75
2019-02-12T14:57:49.133Z,9.28
2019-02-12T15:00:20.143Z,8.65
2019-02-12T15:02:49.200Z,9.35
2019-02-12T15:05:18.473Z,9.05
2019-02-12T15:07:47.635Z,9.30
2019-02-12T15:10:16.943Z,10.28
2019-02-12T15:12:46.075Z,8.95
2019-02-12T15:15:15.128Z,9.05
2019-02-12T15:17:44.262Z,9.50
2019-02-12T15:20:13.839Z,10.72
2019-02-12T15:22:45.380Z,10.50
2019-02-12T15:25:14.686Z,9.88
2019-02-12T15:27:44.089Z,9.38
2019-02-12T15:30:16.859Z,9.03
2019-02-12T15:32:45.925Z,9.65
2019-02-12T15:35:15.355Z,8.80
2019-02-12T15:37:44.419Z,9.95
2019-02-12T15:40:19.876Z,8.63
2019-02-12T15:42:48.937Z,9.20
2019-02-12T15:45:23.714Z,9.43
2019-02-12T15:47:53.129Z,8.55
2019-02-12T15:50:22.362Z,9.45
2019-02-12T15:52:51.470Z,9.10
2019-02-12T15:55:20.546Z,9.85
2019-02-12T15:57:49.623Z,10.03
2019-02-12T16:00:21.653Z,9.30
2019-02-12T16:02:51.077Z,9.88
2019-02-12T16:05:20.148Z,9.38
2019-02-12T16:07:49.296Z,10.05
2019-02-12T16:10:20.016Z,9.13
2019-02-12T16:12:51.518Z,10.28
2019-02-12T16:15:23.853Z,10.23
2019-02-12T16:17:52.193Z,9.88
2019-02-12T16:20:21.258Z,9.63
2019-02-12T16:22:50.365Z,9.35
2019-02-12T16:25:19.453Z,9.13
2019-02-12T16:27:48.534Z,10.15
2019-02-12T16:30:19.995Z,10.00
2019-02-12T16:32:49.079Z,10.10
2019-02-12T16:35:18.885Z,10.88
2019-02-12T16:37:48.107Z,10.93
2019-02-12T16:40:18.413Z,10.35
2019-02-12T16:42:47.478Z,10.43
2019-02-12T16:45:33.646Z,11.35
2019-02-12T16:48:02.708Z,10.28
2019-02-12T16:50:32.047Z,10.93
2019-02-12T16:53:01.223Z,11.43
2019-02-12T16:55:30.284Z,11.12
2019-02-12T16:57:59.630Z,11.45
2019-02-12T17:00:28.744Z,9.83
2019-02-12T17:02:58.146Z,9.75
2019-02-12T17:05:27.539Z,10.30
2019-02-12T17:07:56.640Z,10.93
2019-02-12T17:10:26.030Z,10.95
2019-02-12T17:12:56.618Z,10.50
2019-02-12T17:15:25.726Z,10.63
2019-02-12T17:17:54.799Z,10.38
2019-02-12T17:20:25.010Z,12.23
2019-02-12T17:22:54.475Z,12.35
2019-02-12T17:25:23.542Z,10.38
2019-02-12T17:27:52.882Z,10.95
2019-02-12T17:30:22.006Z,10.95
2019-02-12T17:32:53.973Z,9.80
2019-02-12T17:35:23.031Z,9.78
2019-02-12T17:37:53.778Z,10.65
2019-02-12T17:40:23.163Z,10.25
2019-02-12T17:42:52.308Z,10.00
2019-02-12T17:45:21.438Z,9.70
2019-02-12T17:47:50.525Z,10.60
2019-02-12T17:50:19.582Z,10.30
2019-02-12T17:52:48.950Z,11.30
2019-02-12T17:55:18.063Z,11.97
2019-02-12T17:57:47.205Z,11.70
2019-02-12T18:00:21.337Z,11.78
2019-02-12T18:02:50.454Z,11.50
2019-02-12T18:05:19.583Z,12.28
2019-02-12T18:07:48.745Z,11.33
2019-02-12T18:10:18.146Z,11.20
2019-02-12T18:12:47.538Z,11.60
2019-02-12T18:15:16.635Z,10.35
2019-02-12T18:17:45.750Z,10.43
2019-02-12T18:20:17.374Z,10.53
2019-02-12T18:22:46.698Z,10.15
2019-02-12T18:25:15.911Z,11.12
2019-02-12T18:27:44.985Z,12.10
2019-02-12T18:30:16.167Z,11.18
2019-02-12T18:32:45.261Z,10.95
2019-02-12T18:35:14.358Z,10.88
2019-02-12T18:37:43.445Z,12.75
2019-02-12T18:40:19.014Z,11.45
2019-02-12T18:42:48.147Z,11.70
2019-02-12T18:45:23.153Z,11.10
2019-02-12T18:47:52.215Z,11.08
2019-02-12T18:50:21.343Z,11.22
2019-02-12T18:52:50.414Z,12.10
2019-02-12T18:55:19.489Z,11.45
2019-02-12T18:57:48.873Z,11.85
2019-02-12T19:00:22.939Z,11.80
2019-02-12T19:02:52.006Z,11.12
2019-02-12T19:05:21.365Z,12.05
2019-02-12T19:07:50.780Z,11.12
2019-02-12T19:10:20.314Z,11.95
2019-02-12T19:12:49.701Z,11.90
2019-02-12T19:15:21.739Z,12.33
2019-02-12T19:18:14.439Z,12.43
2019-02-12T19:20:43.559Z,12.45
2019-02-12T19:23:12.902Z,14.45
2019-02-12T19:25:41.980Z,12.98
2019-02-12T19:28:11.994Z,13.22
2019-02-12T19:30:41.065Z,13.22
2019-02-12T19:33:10.138Z,12.33
2019-02-12T19:35:39.234Z,13.28
2019-02-12T19:38:08.293Z,12.53
2019-02-12T19:40:37.353Z,12.35
2019-02-12T19:43:06.469Z,12.23
2019-02-12T19:45:35.883Z,12.28
2019-02-12T19:48:04.946Z,11.60
2019-02-12T19:50:34.065Z,12.15
2019-02-12T19:53:03.226Z,12.40
2019-02-12T19:55:32.398Z,12.55
2019-02-12T19:58:01.536Z,12.40
2019-02-12T20:00:30.669Z,12.07
2019-02-12T20:02:59.779Z,12.10
2019-02-12T20:05:29.158Z,12.05
2019-02-12T20:07:58.220Z,12.25
2019-02-12T20:10:27.648Z,12.55
2019-02-12T20:12:57.064Z,12.47
2019-02-12T20:15:26.467Z,12.58
2019-02-12T20:17:55.530Z,12.20
2019-02-12T20:20:24.628Z,13.38
2019-02-12T20:22:53.739Z,12.35
2019-02-12T20:25:22.799Z,11.57
2019-02-12T20:27:52.149Z,13.62
2019-02-12T20:30:21.219Z,12.18
2019-02-12T20:32:50.279Z,13.28
2019-02-12T20:35:22.923Z,15.05
2019-02-12T20:37:52.299Z,14.95
2019-02-12T20:40:21.373Z,16.02
2019-02-12T20:42:50.497Z,12.13
2019-02-12T20:45:20.132Z,13.45
2019-02-12T20:47:49.196Z,26.37
2019-02-12T20:50:20.450Z,18.23
2019-02-12T20:52:49.517Z,12.18
2019-02-12T20:55:18.955Z,12.63
2019-02-12T20:57:48.113Z,13.45
2019-02-12T21:00:26.177Z,13.75
2019-02-12T21:02:55.277Z,12.90
2019-02-12T21:05:24.639Z,16.25
2019-02-12T21:07:54.035Z,13.48
2019-02-12T21:10:24.598Z,17.27
2019-02-12T21:12:53.742Z,15.93
2019-02-12T21:15:28.664Z,17.77
2019-02-12T21:17:58.010Z,14.30
2019-02-12T21:20:27.208Z,13.00
2019-02-12T21:22:57.119Z,17.12
2019-02-12T21:25:26.189Z,13.58
2019-02-12T21:27:55.292Z,12.43
2019-02-12T21:30:30.940Z,12.43
2019-02-12T21:33:00.049Z,11.50
2019-02-12T21:35:29.177Z,14.35
2019-02-12T21:37:58.909Z,14.50
2019-02-12T21:40:28.757Z,13.93
2019-02-12T21:42:57.825Z,14.78
2019-02-12T21:45:27.175Z,14.23
2019-02-12T21:47:56.567Z,13.93
2019-02-12T21:50:25.629Z,12.93
2019-02-12T21:52:54.692Z,12.68
2019-02-12T21:55:24.065Z,13.05
2019-02-12T21:57:53.466Z,13.93
2019-02-12T22:00:23.370Z,12.37
2019-02-12T22:02:52.476Z,13.13
2019-02-12T22:05:21.887Z,14.25
2019-02-12T22:07:51.271Z,13.98
2019-02-12T22:10:27.843Z,12.35
2019-02-12T22:12:57.261Z,12.90
2019-02-12T22:15:26.648Z,12.73
2019-02-12T22:17:56.066Z,14.15
2019-02-12T22:20:25.152Z,12.65
2019-02-12T22:22:54.243Z,12.93
2019-02-12T22:25:23.375Z,13.83
2019-02-12T22:27:52.746Z,14.58
2019-02-12T22:30:25.193Z,13.95
2019-02-12T22:32:54.348Z,12.85
2019-02-12T22:35:23.460Z,12.47
2019-02-12T22:37:52.812Z,12.47
2019-02-12T22:40:21.933Z,12.68
2019-02-12T22:42:51.315Z,12.13
2019-02-12T22:45:25.578Z,12.28
2019-02-12T22:47:54.687Z,11.88
2019-02-12T22:50:24.028Z,12.70
2019-02-12T22:52:53.100Z,11.75
2019-02-12T22:55:22.192Z,12.03
2019-02-12T22:57:51.505Z,11.73
2019-02-12T23:00:48.599Z,12.50
2019-02-12T23:03:17.665Z,11.95
2019-02-12T23:05:47.074Z,11.85
2019-02-12T23:08:16.476Z,12.45
2019-02-12T23:10:45.620Z,12.23
2019-02-12T23:13:14.684Z,12.85
2019-02-12T23:15:44.153Z,13.15
2019-02-12T23:18:13.223Z,13.45
2019-02-12T23:20:42.547Z,11.93
2019-02-12T23:23:11.655Z,11.55
2019-02-12T23:25:41.052Z,11.97
2019-02-12T23:28:10.113Z,12.23
2019-02-12T23:30:39.222Z,11.95
2019-02-12T23:33:08.284Z,13.38
2019-02-12T23:35:37.336Z,11.45
2019-02-12T23:38:06.739Z,11.22
2019-02-12T23:40:35.811Z,12.03
2019-02-12T23:43:04.884Z,10.70
2019-02-12T23:45:34.317Z,12.63
2019-02-12T23:48:03.376Z,11.85
2019-02-12T23:50:32.439Z,11.95
2019-02-12T23:53:01.552Z,11.53
2019-02-12T23:55:30.620Z,13.53
2019-02-12T23:58:05.751Z,12.13
